Time;durP1;ratioP1;P1;durP2;ratioP2;P2;SDS_P1;SDS_P2;PMS_P1;PMS_P2;Temp;Humidity;BMP_temperature;BMP_pressure;BME280_temperature;BME280_humidity;BME280_pressure;Samples;Min_cycle;Max_cycle;Signal;HPM_P1;HPM_P2
2022/09/26 00:00:50;;;;;;;;;;;12.70;99.90;;;;;;8415478;28;20355;-79
2022/09/26 00:04:52;;;;;;;;;;;12.70;99.90;;;;;;8397235;28;20347;-79
2022/09/26 00:08:54;;;;;;;;;;;12.70;99.90;;;;;;8417507;28;20015;-79
2022/09/26 00:12:56;;;;;;;;;;;12.70;99.90;;;;;;8411645;28;20397;-79
2022/09/26 00:16:57;;;;;;;;;;;12.70;99.90;;;;;;8413726;28;19920;-79
2022/09/26 00:21:03;;;;;;;;;;;12.70;99.90;;;;;;8389137;28;20010;-78
2022/09/26 00:25:05;;;;;;;;;;;12.70;99.90;;;;;;8425631;28;20356;-78
2022/09/26 00:29:08;;;;;;;;;;;12.70;99.90;;;;;;8420270;28;19926;-79
2022/09/26 00:33:11;;;;;;;;;;;12.60;99.90;;;;;;8413678;28;19920;-78
2022/09/26 00:37:12;;;;;;;;;;;12.60;99.90;;;;;;8405407;28;19931;-79
2022/09/26 00:41:15;;;;;;;;;;;12.50;99.90;;;;;;8410211;28;19927;-79
2022/09/26 00:45:16;;;;;;;;;;;12.50;99.90;;;;;;8410812;28;20379;-78
2022/09/26 00:49:24;;;;;;;;;;;12.60;99.90;;;;;;8394663;28;20384;-80
2022/09/26 00:53:30;;;;;;;;;;;12.60;99.90;;;;;;8391096;28;20026;-78
2022/09/26 00:57:34;;;;;;;;;;;12.60;99.90;;;;;;8411358;28;19930;-79
2022/09/26 01:01:36;;;;;;;;;;;12.60;99.90;;;;;;8402161;28;19935;-78
2022/09/26 01:05:37;;;;;;;;;;;12.60;99.90;;;;;;8424418;28;20029;-79
2022/09/26 01:09:39;;;;;;;;;;;12.60;99.90;;;;;;8416852;28;19928;-79
2022/09/26 01:13:41;;;;;;;;;;;12.60;99.90;;;;;;8408069;28;20014;-78
2022/09/26 01:17:44;;;;;;;;;;;12.50;99.90;;;;;;8405757;28;19924;-78
2022/09/26 01:22:03;;;;;;;;;;;12.50;99.90;;;;;;8414145;28;19923;-79
2022/09/26 01:26:18;;;;;;;;;;;12.50;99.90;;;;;;8424479;28;19965;-78
2022/09/26 01:30:25;;;;;;;;;;;12.50;99.90;;;;;;8405977;28;19930;-78
2022/09/26 01:34:32;;;;;;;;;;;12.50;99.90;;;;;;8403366;28;19924;-78
2022/09/26 01:38:41;;;;;;;;;;;12.50;99.90;;;;;;8399155;28;20372;-79
2022/09/26 01:42:49;;;;;;;;;;;12.40;99.90;;;;;;8403779;28;19927;-78
2022/09/26 01:46:55;;;;;;;;;;;12.40;99.90;;;;;;8407008;28;19932;-79
2022/09/26 01:51:01;;;;;;;;;;;12.40;99.90;;;;;;8408247;28;19934;-79
2022/09/26 01:55:11;;;;;;;;;;;12.40;99.90;;;;;;8416050;28;20298;-79
2022/09/26 01:59:19;;;;;;;;;;;12.40;99.90;;;;;;8413153;28;20339;-79
2022/09/26 02:03:26;;;;;;;;;;;12.40;99.90;;;;;;8385652;28;19920;-79
2022/09/26 02:07:39;;;;;;;;;;;12.30;99.90;;;;;;8408992;28;19924;-78
2022/09/26 02:11:43;;;;;;;;;;;12.40;99.90;;;;;;8411408;28;19920;-79
2022/09/26 02:15:46;;;;;;;;;;;12.40;99.90;;;;;;8402531;28;19930;-78
2022/09/26 02:19:55;;;;;;;;;;;12.40;99.90;;;;;;8407537;28;19946;-79
2022/09/26 02:23:56;;;;;;;;;;;12.40;99.90;;;;;;8389177;28;19924;-79
2022/09/26 02:27:58;;;;;;;;;;;12.40;99.90;;;;;;8404719;28;19923;-79
2022/09/26 02:32:02;;;;;;;;;;;12.40;99.90;;;;;;8409917;28;20268;-78
2022/09/26 02:36:09;;;;;;;;;;;12.30;99.90;;;;;;8398803;28;19920;-79
2022/09/26 02:40:10;;;;;;;;;;;12.30;99.90;;;;;;8405981;28;19920;-78
2022/09/26 02:44:23;;;;;;;;;;;12.30;99.90;;;;;;8412066;28;19923;-77
2022/09/26 02:48:43;;;;;;;;;;;12.20;99.90;;;;;;8403744;28;19924;-78
2022/09/26 02:53:00;;;;;;;;;;;12.20;99.90;;;;;;8405314;28;20382;-79
2022/09/26 02:57:04;;;;;;;;;;;12.20;99.90;;;;;;8418222;28;19928;-79
2022/09/26 03:01:14;;;;;;;;;;;12.10;99.90;;;;;;8385457;28;19943;-79
2022/09/26 03:05:20;;;;;;;;;;;12.10;99.90;;;;;;8424178;28;19939;-79
2022/09/26 03:09:22;;;;;;;;;;;12.10;99.90;;;;;;8402525;28;20283;-79
2022/09/26 03:13:24;;;;;;;;;;;12.00;99.90;;;;;;8407321;28;19949;-79
2022/09/26 03:17:27;;;;;;;;;;;12.00;99.90;;;;;;8399750;28;20192;-79
2022/09/26 03:21:28;;;;;;;;;;;12.00;99.90;;;;;;8394961;28;20378;-77
2022/09/26 03:25:33;;;;;;;;;;;12.00;99.90;;;;;;8421411;28;20333;-78
2022/09/26 03:29:34;;;;;;;;;;;11.90;99.90;;;;;;8444196;27;19934;-78
2022/09/26 03:33:36;;;;;;;;;;;11.90;99.90;;;;;;8411711;28;19924;-79
2022/09/26 03:37:38;;;;;;;;;;;11.90;99.90;;;;;;8402048;28;19925;-78
2022/09/26 03:41:41;;;;;;;;;;;11.90;99.90;;;;;;8384449;28;19928;-79
2022/09/26 03:45:42;;;;;;;;;;;12.00;99.90;;;;;;8410688;28;20819;-79
2022/09/26 03:49:44;;;;;;;;;;;11.90;99.90;;;;;;8440023;27;19924;-78
2022/09/26 03:53:46;;;;;;;;;;;12.00;99.90;;;;;;8417344;28;19976;-79
2022/09/26 03:57:47;;;;;;;;;;;12.00;99.90;;;;;;8394893;28;20355;-78
2022/09/26 04:01:49;;;;;;;;;;;11.90;99.90;;;;;;8400092;28;19930;-78
2022/09/26 04:05:51;;;;;;;;;;;11.90;99.90;;;;;;8425374;28;19962;-79
2022/09/26 04:09:52;;;;;;;;;;;11.90;99.90;;;;;;8435498;28;19919;-78
2022/09/26 04:13:54;;;;;;;;;;;11.90;99.90;;;;;;8412622;28;20375;-79
2022/09/26 04:17:56;;;;;;;;;;;11.90;99.90;;;;;;8416243;28;19931;-79
2022/09/26 04:21:57;;;;;;;;;;;11.90;99.90;;;;;;8409322;28;19950;-79
2022/09/26 04:26:18;;;;;;;;;;;11.90;99.90;;;;;;8429236;28;19927;-79
2022/09/26 04:30:23;;;;;;;;;;;11.90;99.90;;;;;;8412480;28;19919;-79
2022/09/26 04:34:25;;;;;;;;;;;11.90;99.90;;;;;;8385210;28;19932;-78
2022/09/26 04:38:31;;;;;;;;;;;11.90;99.90;;;;;;8417036;28;19928;-78
2022/09/26 04:42:35;;;;;;;;;;;11.90;99.90;;;;;;8419342;28;20655;-79
2022/09/26 04:46:37;;;;;;;;;;;11.90;99.90;;;;;;8415115;28;19928;-78
2022/09/26 04:50:39;;;;;;;;;;;11.90;99.90;;;;;;8415171;28;19927;-78
2022/09/26 04:54:40;;;;;;;;;;;11.90;99.90;;;;;;8414015;28;20007;-79
2022/09/26 04:58:42;;;;;;;;;;;11.90;99.90;;;;;;8431212;27;20056;-79
2022/09/26 05:02:47;;;;;;;;;;;11.90;99.90;;;;;;8405192;28;19924;-79
2022/09/26 05:06:48;;;;;;;;;;;11.90;99.90;;;;;;8438202;28;19928;-79
2022/09/26 05:10:51;;;;;;;;;;;11.80;99.90;;;;;;8431111;28;19978;-78
2022/09/26 05:14:53;;;;;;;;;;;11.90;99.90;;;;;;8409002;28;19924;-79
2022/09/26 05:18:55;;;;;;;;;;;11.80;99.90;;;;;;8427724;28;19935;-79
2022/09/26 05:22:57;;;;;;;;;;;11.80;99.90;;;;;;8427008;28;20409;-78
2022/09/26 05:26:59;;;;;;;;;;;11.80;99.90;;;;;;8379069;28;19920;-79
2022/09/26 05:31:01;;;;;;;;;;;11.80;99.90;;;;;;8377326;28;20379;-78
2022/09/26 05:35:04;;;;;;;;;;;11.70;99.90;;;;;;8380244;28;19920;-78
2022/09/26 05:40:55;;;;;;;;;;;11.70;99.90;;;;;;8396146;28;19930;-78
2022/09/26 05:43:32;;;;;;;;;;;11.70;99.90;;;;;;8393909;28;20390;-77
2022/09/26 05:47:35;;;;;;;;;;;11.70;99.90;;;;;;8370590;28;20011;-78
2022/09/26 05:51:40;;;;;;;;;;;11.70;99.90;;;;;;8400341;28;19924;-78
2022/09/26 05:55:41;;;;;;;;;;;11.60;99.90;;;;;;8382885;28;19967;-79
2022/09/26 05:59:43;;;;;;;;;;;11.60;99.90;;;;;;8374827;28;19926;-78
2022/09/26 06:03:45;;;;;;;;;;;11.60;99.90;;;;;;8405753;28;19920;-79
2022/09/26 06:07:47;;;;;;;;;;;11.60;99.90;;;;;;8399653;28;19924;-79
2022/09/26 06:11:48;;;;;;;;;;;11.60;99.90;;;;;;8373121;28;19923;-78
2022/09/26 06:15:51;;;;;;;;;;;11.50;99.90;;;;;;8401658;28;19921;-78
2022/09/26 06:19:53;;;;;;;;;;;11.50;99.90;;;;;;8396168;28;19919;-77
2022/09/26 06:23:55;;;;;;;;;;;11.50;99.90;;;;;;8407787;28;19931;-77
2022/09/26 06:27:56;;;;;;;;;;;11.50;99.90;;;;;;8377890;28;19928;-78
2022/09/26 06:32:00;;;;;;;;;;;11.50;99.90;;;;;;8401404;28;19920;-78
2022/09/26 06:36:03;;;;;;;;;;;11.50;99.90;;;;;;8403641;28;20343;-79
2022/09/26 06:40:07;;;;;;;;;;;11.60;99.90;;;;;;8404690;28;20004;-77
2022/09/26 06:44:09;;;;;;;;;;;11.60;99.90;;;;;;8404383;28;20342;-78
2022/09/26 06:48:12;;;;;;;;;;;11.60;99.90;;;;;;8394594;28;19932;-77
2022/09/26 06:52:13;;;;;;;;;;;11.60;99.90;;;;;;8382285;28;19920;-78
2022/09/26 06:56:15;;;;;;;;;;;11.70;99.90;;;;;;8404731;28;20032;-78
2022/09/26 07:00:16;;;;;;;;;;;11.70;99.90;;;;;;8396930;28;20298;-78
2022/09/26 07:04:18;;;;;;;;;;;11.70;99.90;;;;;;8381762;28;20241;-78
2022/09/26 07:08:20;;;;;;;;;;;11.80;99.90;;;;;;8393449;28;19931;-79
2022/09/26 07:12:36;;;;;;;;;;;11.80;99.90;;;;;;8409847;28;19927;-79
2022/09/26 07:16:38;;;;;;;;;;;11.80;99.90;;;;;;8413677;28;20012;-79
2022/09/26 07:20:39;;;;;;;;;;;11.80;99.90;;;;;;8383295;28;20368;-79
2022/09/26 07:24:47;;;;;;;;;;;11.90;99.90;;;;;;8385210;28;19920;-79
2022/09/26 07:28:49;;;;;;;;;;;11.90;99.90;;;;;;8456202;27;19930;-79
2022/09/26 07:33:01;;;;;;;;;;;11.90;99.90;;;;;;8435158;28;20348;-79
2022/09/26 07:37:03;;;;;;;;;;;11.90;99.90;;;;;;8429416;28;20001;-78
2022/09/26 07:41:09;;;;;;;;;;;11.90;99.90;;;;;;8433306;28;19926;-79
2022/09/26 07:45:11;;;;;;;;;;;11.90;99.90;;;;;;8460847;27;19934;-79
2022/09/26 07:53:51;;;;;;;;;;;11.90;99.90;;;;;;8435378;28;19930;-79
2022/09/26 07:57:53;;;;;;;;;;;11.90;99.90;;;;;;8423956;27;20282;-79
2022/09/26 08:01:56;;;;;;;;;;;12.00;99.90;;;;;;8449141;28;19938;-79
2022/09/26 08:05:59;;;;;;;;;;;12.00;99.90;;;;;;8444550;28;20239;-78
2022/09/26 08:10:01;;;;;;;;;;;12.10;99.90;;;;;;8452260;28;19998;-78
2022/09/26 08:14:03;;;;;;;;;;;12.10;99.90;;;;;;8439986;28;20004;-78
2022/09/26 08:18:05;;;;;;;;;;;12.10;99.90;;;;;;8450100;28;19928;-79
2022/09/26 08:22:07;;;;;;;;;;;12.10;99.90;;;;;;8459282;28;19946;-78
2022/09/26 08:26:08;;;;;;;;;;;12.10;99.90;;;;;;8465816;27;20340;-79
2022/09/26 08:30:10;;;;;;;;;;;12.20;99.90;;;;;;8474661;27;19919;-78
2022/09/26 08:34:12;;;;;;;;;;;12.20;99.90;;;;;;8458283;28;19930;-79
2022/09/26 08:38:14;;;;;;;;;;;12.20;99.90;;;;;;8456939;28;19949;-78
2022/09/26 08:42:28;;;;;;;;;;;12.20;99.90;;;;;;8461416;28;19923;-77
2022/09/26 08:46:48;;;;;;;;;;;12.20;99.90;;;;;;8459424;28;19935;-78
2022/09/26 08:50:52;;;;;;;;;;;12.20;99.90;;;;;;8455884;28;19930;-78
2022/09/26 08:54:55;;;;;;;;;;;12.20;99.90;;;;;;8456821;28;20364;-79
2022/09/26 08:58:58;;;;;;;;;;;12.20;99.90;;;;;;8460129;27;19923;-78
2022/09/26 09:03:02;;;;;;;;;;;12.20;99.90;;;;;;8458108;28;19920;-78
2022/09/26 09:07:10;;;;;;;;;;;12.20;99.90;;;;;;8459224;28;19935;-79
2022/09/26 09:11:12;;;;;;;;;;;12.20;99.90;;;;;;8448403;28;20013;-80
2022/09/26 09:15:22;;;;;;;;;;;12.20;99.90;;;;;;8454078;28;19924;-78
2022/09/26 09:19:35;;;;;;;;;;;12.20;99.90;;;;;;8452136;28;19926;-78
2022/09/26 09:23:54;;;;;;;;;;;12.20;99.90;;;;;;8457478;28;19920;-78
2022/09/26 09:27:55;;;;;;;;;;;12.10;99.90;;;;;;8455585;28;20375;-78
2022/09/26 09:32:04;;;;;;;;;;;12.10;99.90;;;;;;8453305;28;19923;-78
2022/09/26 09:36:12;;;;;;;;;;;12.10;99.90;;;;;;8451187;28;19919;-77
2022/09/26 09:40:35;;;;;;;;;;;12.10;99.90;;;;;;8453390;28;19949;-77
2022/09/26 09:44:40;;;;;;;;;;;12.20;99.90;;;;;;8455792;28;19920;-78
2022/09/26 09:48:47;;;;;;;;;;;12.30;99.90;;;;;;8480370;27;19927;-78
2022/09/26 09:52:51;;;;;;;;;;;12.30;99.90;;;;;;8457072;28;19923;-78
2022/09/26 09:57:08;;;;;;;;;;;12.30;99.90;;;;;;8455699;28;19919;-78
2022/09/26 10:01:25;;;;;;;;;;;12.30;99.90;;;;;;8453439;28;19923;-78
2022/09/26 10:05:27;;;;;;;;;;;12.40;99.90;;;;;;8455494;28;20026;-77
2022/09/26 10:09:36;;;;;;;;;;;12.40;99.90;;;;;;8457738;28;20297;-78
2022/09/26 10:13:42;;;;;;;;;;;12.50;99.90;;;;;;8451437;28;19928;-78
2022/09/26 10:17:59;;;;;;;;;;;12.40;99.90;;;;;;8431571;28;19931;-77
2022/09/26 10:22:36;;;;;;;;;;;12.40;99.90;;;;;;8432646;28;19924;-78
2022/09/26 10:26:38;;;;;;;;;;;12.40;99.90;;;;;;8434318;28;19924;-79
2022/09/26 10:30:47;;;;;;;;;;;12.40;99.90;;;;;;8438800;28;20015;-77
2022/09/26 10:35:04;;;;;;;;;;;12.40;99.90;;;;;;8437960;28;19924;-78
2022/09/26 10:43:36;;;;;;;;;;;12.30;99.90;;;;;;8436095;28;19951;-78
2022/09/26 10:47:39;;;;;;;;;;;12.20;99.90;;;;;;8420488;28;20013;-77
2022/09/26 10:51:44;;;;;;;;;;;12.20;99.90;;;;;;8442442;27;20437;-77
2022/09/26 10:55:50;;;;;;;;;;;12.20;99.90;;;;;;8433799;28;20285;-79
2022/09/26 10:59:53;;;;;;;;;;;12.20;99.90;;;;;;8434537;28;19949;-78
2022/09/26 11:03:58;;;;;;;;;;;12.20;99.90;;;;;;8436962;28;20415;-77
2022/09/26 11:08:03;;;;;;;;;;;12.20;99.90;;;;;;8431409;28;19924;-79
2022/09/26 11:12:21;;;;;;;;;;;12.20;99.90;;;;;;8435878;28;19923;-79
2022/09/26 11:16:22;;;;;;;;;;;12.20;99.90;;;;;;8448600;27;19926;-79
2022/09/26 11:20:33;;;;;;;;;;;12.20;99.90;;;;;;8439721;28;19920;-79
2022/09/26 11:24:44;;;;;;;;;;;12.20;99.90;;;;;;8435019;28;19926;-79
2022/09/26 11:28:50;;;;;;;;;;;12.20;99.90;;;;;;8433442;27;19931;-78
2022/09/26 11:32:54;;;;;;;;;;;12.20;99.90;;;;;;8451091;27;19931;-79
2022/09/26 11:37:07;;;;;;;;;;;12.20;99.90;;;;;;8439063;27;19920;-79
2022/09/26 11:41:35;;;;;;;;;;;12.20;99.90;;;;;;8440517;28;19967;-79
2022/09/26 11:45:42;;;;;;;;;;;12.30;99.90;;;;;;8430310;28;20366;-78
2022/09/26 11:49:52;;;;;;;;;;;12.30;99.90;;;;;;8439725;28;19973;-77
2022/09/26 11:54:05;;;;;;;;;;;12.30;99.90;;;;;;8443514;28;19930;-79
2022/09/26 11:58:16;;;;;;;;;;;12.30;99.90;;;;;;8453872;27;19928;-79
2022/09/26 12:02:23;;;;;;;;;;;12.30;99.90;;;;;;8444140;28;19930;-79
2022/09/26 12:06:32;;;;;;;;;;;12.30;99.90;;;;;;8438273;28;20484;-78
2022/09/26 12:10:38;;;;;;;;;;;12.40;99.90;;;;;;8438303;28;19974;-79
2022/09/26 12:14:47;;;;;;;;;;;12.30;99.90;;;;;;8439775;28;20386;-78
2022/09/26 12:18:55;;;;;;;;;;;12.40;99.90;;;;;;8451885;27;19934;-79
2022/09/26 12:23:06;;;;;;;;;;;12.40;99.90;;;;;;8436489;28;20450;-79
2022/09/26 12:27:24;;;;;;;;;;;12.40;99.90;;;;;;8438075;27;19923;-78
2022/09/26 12:31:37;;;;;;;;;;;12.40;99.90;;;;;;8434834;28;20241;-79
2022/09/26 12:35:46;;;;;;;;;;;12.40;99.90;;;;;;8439639;28;20452;-79
2022/09/26 12:39:56;;;;;;;;;;;12.40;99.90;;;;;;8444012;28;19926;-79
2022/09/26 12:44:04;;;;;;;;;;;12.40;99.90;;;;;;8434143;28;19920;-79
2022/09/26 12:48:11;;;;;;;;;;;12.50;99.90;;;;;;8456023;27;19985;-79
2022/09/26 12:52:34;;;;;;;;;;;12.50;99.90;;;;;;8441664;28;19954;-78
2022/09/26 12:56:36;;;;;;;;;;;12.50;99.90;;;;;;8436556;28;19919;-79
2022/09/26 13:00:59;;;;;;;;;;;12.50;99.90;;;;;;8438934;28;20340;-78
2022/09/26 13:05:04;;;;;;;;;;;12.50;99.90;;;;;;8420664;28;19923;-79
2022/09/26 13:09:06;;;;;;;;;;;12.50;99.90;;;;;;8453275;27;19923;-78
2022/09/26 13:13:23;;;;;;;;;;;12.50;99.90;;;;;;8438060;28;19923;-78
2022/09/26 13:17:31;;;;;;;;;;;12.50;99.90;;;;;;8435927;28;19920;-77
2022/09/26 13:21:51;;;;;;;;;;;12.50;99.90;;;;;;8431408;28;20011;-78
2022/09/26 13:25:59;;;;;;;;;;;12.50;99.90;;;;;;8433208;28;20015;-78
2022/09/26 13:30:03;;;;;;;;;;;12.40;99.90;;;;;;8437543;28;19938;-77
2022/09/26 13:34:19;;;;;;;;;;;12.50;99.90;;;;;;8439953;28;19959;-78
2022/09/26 13:38:33;;;;;;;;;;;12.40;99.90;;;;;;8436361;28;19942;-77
2022/09/26 13:42:46;;;;;;;;;;;12.50;99.90;;;;;;8437874;28;20247;-77
2022/09/26 13:46:51;;;;;;;;;;;12.50;99.90;;;;;;8437192;28;19924;-77
2022/09/26 13:50:55;;;;;;;;;;;12.50;99.90;;;;;;8449775;27;20416;-78
2022/09/26 13:55:02;;;;;;;;;;;12.60;99.90;;;;;;8437262;28;19920;-78
2022/09/26 13:59:07;;;;;;;;;;;12.70;99.90;;;;;;8437533;28;19920;-78
2022/09/26 14:03:15;;;;;;;;;;;12.80;99.90;;;;;;8439085;28;19924;-78
2022/09/26 14:12:18;;;;;;;;;;;12.90;99.90;;;;;;8429954;28;19927;-78
2022/09/26 14:16:26;;;;;;;;;;;13.00;99.90;;;;;;8434175;28;19930;-79
2022/09/26 14:20:30;;;;;;;;;;;12.90;99.90;;;;;;8451892;27;20000;-78
2022/09/26 14:24:35;;;;;;;;;;;12.90;99.90;;;;;;8428946;28;20294;-78
2022/09/26 14:28:38;;;;;;;;;;;12.90;99.90;;;;;;8435863;28;19928;-78
2022/09/26 14:32:43;;;;;;;;;;;12.90;99.90;;;;;;8438700;28;19926;-79
2022/09/26 14:36:46;;;;;;;;;;;12.90;99.90;;;;;;8434885;28;19951;-79
2022/09/26 14:40:56;;;;;;;;;;;12.90;99.90;;;;;;8450263;27;19924;-79
2022/09/26 14:44:59;;;;;;;;;;;12.90;99.90;;;;;;8436696;28;19926;-78
2022/09/26 14:49:04;;;;;;;;;;;12.90;99.90;;;;;;8440832;28;20330;-78
2022/09/26 14:53:11;;;;;;;;;;;12.90;99.90;;;;;;8434376;28;20022;-78
2022/09/26 14:57:22;;;;;;;;;;;13.00;99.90;;;;;;8458927;27;19926;-79
2022/09/26 15:01:29;;;;;;;;;;;13.00;99.90;;;;;;8440977;28;19924;-78
2022/09/26 15:05:32;;;;;;;;;;;13.00;99.90;;;;;;8441233;28;19928;-79
2022/09/26 15:09:42;;;;;;;;;;;13.00;99.90;;;;;;8431393;28;19927;-79
2022/09/26 15:13:44;;;;;;;;;;;13.00;99.90;;;;;;8459232;27;19934;-78
2022/09/26 15:17:52;;;;;;;;;;;13.00;99.90;;;;;;8424553;28;19928;-79
2022/09/26 15:21:58;;;;;;;;;;;13.00;99.90;;;;;;8433178;27;19926;-79
2022/09/26 15:26:01;;;;;;;;;;;13.00;99.90;;;;;;8432240;28;19930;-79
2022/09/26 15:30:14;;;;;;;;;;;13.10;99.90;;;;;;8439773;28;20363;-78
2022/09/26 15:34:21;;;;;;;;;;;13.10;99.90;;;;;;8441972;28;19920;-78
2022/09/26 15:38:23;;;;;;;;;;;13.10;99.90;;;;;;8433620;28;19934;-78
2022/09/26 15:46:47;;;;;;;;;;;13.10;99.90;;;;;;8432631;27;19993;-78
2022/09/26 15:50:52;;;;;;;;;;;13.10;99.90;;;;;;8437468;27;20432;-78
2022/09/26 15:54:53;;;;;;;;;;;13.10;99.90;;;;;;8432906;27;19920;-78
2022/09/26 15:58:59;;;;;;;;;;;13.10;99.90;;;;;;8434879;27;19919;-79
2022/09/26 16:03:30;;;;;;;;;;;13.20;99.90;;;;;;8431827;28;20302;-79
2022/09/26 16:07:32;;;;;;;;;;;13.20;99.90;;;;;;8422541;28;19928;-78
2022/09/26 16:11:41;;;;;;;;;;;13.20;99.90;;;;;;8433663;27;19919;-78
2022/09/26 16:15:44;;;;;;;;;;;13.20;99.90;;;;;;8424191;27;19945;-79
2022/09/26 16:19:47;;;;;;;;;;;13.30;99.90;;;;;;8445816;27;19928;-79
2022/09/26 16:23:50;;;;;;;;;;;13.30;99.90;;;;;;8431559;27;20381;-78
2022/09/26 16:27:56;;;;;;;;;;;13.30;99.90;;;;;;8436688;27;20015;-79
2022/09/26 16:31:58;;;;;;;;;;;13.30;99.90;;;;;;8439463;27;19926;-79
2022/09/26 16:36:08;;;;;;;;;;;13.40;99.90;;;;;;8432658;27;19920;-79
2022/09/26 16:40:16;;;;;;;;;;;13.40;99.90;;;;;;8442806;27;19930;-78
2022/09/26 16:44:21;;;;;;;;;;;13.40;99.90;;;;;;8434422;27;19951;-79
2022/09/26 16:48:31;;;;;;;;;;;13.30;99.90;;;;;;8454081;27;20357;-78
2022/09/26 16:52:35;;;;;;;;;;;13.30;99.90;;;;;;8441841;28;20007;-79
2022/09/26 16:56:38;;;;;;;;;;;13.30;99.90;;;;;;8434183;27;19934;-79
2022/09/26 17:05:00;;;;;;;;;;;13.20;99.90;;;;;;8432241;28;19919;-79
2022/09/26 17:09:10;;;;;;;;;;;13.10;99.90;;;;;;8439211;28;19934;-79
2022/09/26 17:13:22;;;;;;;;;;;13.10;99.90;;;;;;8433473;28;20045;-80
2022/09/26 17:17:24;;;;;;;;;;;13.00;99.90;;;;;;8446849;27;19978;-78
2022/09/26 17:21:27;;;;;;;;;;;13.00;99.90;;;;;;8439277;27;19924;-78
2022/09/26 17:25:30;;;;;;;;;;;13.00;99.90;;;;;;8423756;28;19920;-78
2022/09/26 17:29:38;;;;;;;;;;;12.90;99.90;;;;;;8431254;27;20352;-79
2022/09/26 17:33:41;;;;;;;;;;;12.90;99.90;;;;;;8424029;27;19920;-78
2022/09/26 17:37:42;;;;;;;;;;;12.80;99.90;;;;;;8445974;27;19920;-78
2022/09/26 17:41:44;;;;;;;;;;;12.90;99.90;;;;;;8431440;27;19928;-78
2022/09/26 17:45:47;;;;;;;;;;;12.90;99.90;;;;;;8414130;28;20022;-78
2022/09/26 17:49:54;;;;;;;;;;;12.90;99.90;;;;;;8433465;28;19984;-78
2022/09/26 17:53:56;;;;;;;;;;;12.90;99.90;;;;;;8422246;27;19920;-78
2022/09/26 17:57:58;;;;;;;;;;;12.90;99.90;;;;;;8423209;28;19928;-78
2022/09/26 18:02:02;;;;;;;;;;;12.90;99.90;;;;;;8432379;28;19977;-78
2022/09/26 18:06:04;;;;;;;;;;;12.90;99.90;;;;;;8427672;28;19988;-78
2022/09/26 18:10:15;;;;;;;;;;;12.80;99.90;;;;;;8436263;28;19924;-77
2022/09/26 18:14:17;;;;;;;;;;;12.80;99.90;;;;;;8437532;28;19927;-78
2022/09/26 18:18:20;;;;;;;;;;;12.80;99.90;;;;;;8429752;28;19926;-78
2022/09/26 18:22:25;;;;;;;;;;;12.70;99.90;;;;;;8427411;28;19935;-78
2022/09/26 18:26:28;;;;;;;;;;;12.70;99.90;;;;;;8429374;28;19931;-79
2022/09/26 18:30:30;;;;;;;;;;;12.60;99.90;;;;;;8427381;27;19920;-79
2022/09/26 18:34:32;;;;;;;;;;;12.50;99.90;;;;;;8439709;27;19930;-78
2022/09/26 18:38:46;;;;;;;;;;;12.50;99.90;;;;;;8438918;27;19926;-79
2022/09/26 18:42:47;;;;;;;;;;;12.50;99.90;;;;;;8433403;27;19927;-78
2022/09/26 18:46:49;;;;;;;;;;;12.50;99.90;;;;;;8433409;27;19929;-78
2022/09/26 18:50:52;;;;;;;;;;;12.50;99.90;;;;;;8435205;28;19926;-79
2022/09/26 18:59:14;;;;;;;;;;;12.50;99.90;;;;;;8434868;27;19926;-78
2022/09/26 19:03:17;;;;;;;;;;;12.50;99.90;;;;;;8431385;27;19924;-79
2022/09/26 19:07:19;;;;;;;;;;;12.50;99.90;;;;;;8434853;28;20661;-79
2022/09/26 19:11:23;;;;;;;;;;;12.50;99.90;;;;;;8437800;27;20327;-78
2022/09/26 19:15:26;;;;;;;;;;;12.40;99.90;;;;;;8430413;28;19926;-79
2022/09/26 19:19:29;;;;;;;;;;;12.40;99.90;;;;;;8430918;28;19924;-78
2022/09/26 19:23:32;;;;;;;;;;;12.40;99.90;;;;;;8432269;27;19919;-78
2022/09/26 19:27:52;;;;;;;;;;;12.40;99.90;;;;;;8426132;28;20015;-77
2022/09/26 19:31:54;;;;;;;;;;;12.30;99.90;;;;;;8431617;27;20288;-79
2022/09/26 19:35:55;;;;;;;;;;;12.30;99.90;;;;;;8428230;28;19987;-78
2022/09/26 19:39:57;;;;;;;;;;;12.30;99.90;;;;;;8450273;27;20457;-78
2022/09/26 19:43:59;;;;;;;;;;;12.30;99.90;;;;;;8429259;28;19930;-79
2022/09/26 19:48:01;;;;;;;;;;;12.30;99.90;;;;;;8437772;27;20386;-78
2022/09/26 19:52:04;;;;;;;;;;;12.30;99.90;;;;;;8428550;27;19950;-78
2022/09/26 19:56:06;;;;;;;;;;;12.20;99.90;;;;;;8427970;27;19933;-79
2022/09/26 20:00:09;;;;;;;;;;;12.20;99.90;;;;;;8446055;27;20044;-79
2022/09/26 20:04:16;;;;;;;;;;;12.20;99.90;;;;;;8431407;27;19920;-78
2022/09/26 20:08:20;;;;;;;;;;;12.10;99.90;;;;;;8448929;27;19927;-79
2022/09/26 20:12:22;;;;;;;;;;;12.10;99.90;;;;;;8444793;27;19927;-79
2022/09/26 20:16:24;;;;;;;;;;;12.10;99.90;;;;;;8443938;27;19919;-79
2022/09/26 20:20:30;;;;;;;;;;;12.10;99.90;;;;;;8430782;27;19920;-79
2022/09/26 20:24:34;;;;;;;;;;;12.10;99.90;;;;;;8444439;27;20014;-79
2022/09/26 20:28:36;;;;;;;;;;;12.00;99.90;;;;;;8429528;27;19920;-79
2022/09/26 20:32:39;;;;;;;;;;;12.00;99.90;;;;;;8429540;27;20377;-79
2022/09/26 20:36:44;;;;;;;;;;;12.00;99.90;;;;;;8428366;27;20015;-78
2022/09/26 20:40:47;;;;;;;;;;;12.00;99.90;;;;;;8430287;27;19930;-78
2022/09/26 20:44:49;;;;;;;;;;;11.90;99.90;;;;;;8429524;27;19922;-79
2022/09/26 20:58:59;;;;;;;;;;;11.90;99.90;;;;;;8430535;27;19954;-78
2022/09/26 21:03:00;;;;;;;;;;;11.80;99.90;;;;;;8429610;27;20394;-78
2022/09/26 21:07:02;;;;;;;;;;;11.90;99.90;;;;;;8447098;27;19958;-79
2022/09/26 21:11:04;;;;;;;;;;;11.90;99.90;;;;;;8453553;27;20378;-79
2022/09/26 21:15:07;;;;;;;;;;;11.80;99.90;;;;;;8452048;27;20056;-79
2022/09/26 21:19:11;;;;;;;;;;;11.90;99.90;;;;;;8438528;27;19928;-79
2022/09/26 21:23:12;;;;;;;;;;;11.80;99.90;;;;;;8449766;27;19976;-79
2022/09/26 21:27:14;;;;;;;;;;;11.80;99.90;;;;;;8451254;27;19920;-78
2022/09/26 21:31:27;;;;;;;;;;;11.80;99.90;;;;;;8447650;27;19920;-79
2022/09/26 21:35:29;;;;;;;;;;;11.80;99.90;;;;;;8445100;27;20382;-78
2022/09/26 21:39:31;;;;;;;;;;;11.80;99.90;;;;;;8445125;28;20255;-79
2022/09/26 21:43:35;;;;;;;;;;;11.70;99.90;;;;;;8460198;27;20014;-78
2022/09/26 21:47:36;;;;;;;;;;;11.70;99.90;;;;;;8446839;28;19924;-78
2022/09/26 21:51:38;;;;;;;;;;;11.80;99.90;;;;;;8443903;27;19934;-78
2022/09/26 21:55:43;;;;;;;;;;;11.70;99.90;;;;;;8452691;27;19923;-79
2022/09/26 21:59:46;;;;;;;;;;;11.70;99.90;;;;;;8456057;28;19919;-78
2022/09/26 22:03:48;;;;;;;;;;;11.70;99.90;;;;;;8442805;28;19920;-79
2022/09/26 22:07:50;;;;;;;;;;;11.70;99.90;;;;;;8441892;28;20022;-79
2022/09/26 22:17:29;;;;;;;;;;;11.60;99.90;;;;;;8438330;28;19967;-78
2022/09/26 22:21:30;;;;;;;;;;;11.60;99.90;;;;;;8464964;27;19980;-80
2022/09/26 22:25:33;;;;;;;;;;;11.50;99.90;;;;;;8475789;27;19924;-79
2022/09/26 22:29:35;;;;;;;;;;;11.50;99.90;;;;;;8450899;28;19930;-79
2022/09/26 22:33:36;;;;;;;;;;;11.50;99.90;;;;;;8441827;28;19927;-79
2022/09/26 22:37:38;;;;;;;;;;;11.50;99.90;;;;;;8419800;28;19924;-79
2022/09/26 22:41:40;;;;;;;;;;;11.50;99.90;;;;;;8467643;27;20285;-79
2022/09/26 22:45:41;;;;;;;;;;;11.50;99.90;;;;;;8434434;28;20010;-79
2022/09/26 22:49:43;;;;;;;;;;;11.50;99.90;;;;;;8441177;28;19924;-79
2022/09/26 22:53:45;;;;;;;;;;;11.40;99.90;;;;;;8443956;28;20051;-79
2022/09/26 22:57:48;;;;;;;;;;;11.40;99.90;;;;;;8428700;28;19926;-79
2022/09/26 23:01:50;;;;;;;;;;;11.40;99.90;;;;;;8459583;27;20010;-79
2022/09/26 23:05:52;;;;;;;;;;;11.40;99.90;;;;;;8446931;28;20375;-79
2022/09/26 23:09:53;;;;;;;;;;;11.40;99.90;;;;;;8457668;28;19928;-79
2022/09/26 23:13:55;;;;;;;;;;;11.40;99.90;;;;;;8455943;28;19957;-79
2022/09/26 23:17:56;;;;;;;;;;;11.40;99.90;;;;;;8449390;27;20290;-79
2022/09/26 23:21:58;;;;;;;;;;;11.40;99.90;;;;;;8456955;27;19950;-78
2022/09/26 23:26:00;;;;;;;;;;;11.40;99.90;;;;;;8451037;27;19919;-79
2022/09/26 23:30:02;;;;;;;;;;;11.30;99.90;;;;;;8449101;27;19939;-79
2022/09/26 23:34:04;;;;;;;;;;;11.40;99.90;;;;;;8449693;28;19963;-79
2022/09/26 23:38:05;;;;;;;;;;;11.40;99.90;;;;;;8443981;27;20418;-79
2022/09/26 23:42:08;;;;;;;;;;;11.30;99.90;;;;;;8442027;27;19927;-79
2022/09/26 23:46:09;;;;;;;;;;;11.30;99.90;;;;;;8446697;27;19949;-79
